Airfield :







YOU CAN JOIN US ON...

 
LOGIN :

Register | Disclaimer

   EN    FR    IT 

 









Legend :    VFR   Marginal VFR   IFR   Intensive IFR   Very Intensive IFR
Visi :
Ceiling :
>= 8 km
>= 3000ft
5 to 8 km
1000 to 3000 ft
1500m to 5 km
500 to 1000 ft
800 to 1500m
200 to 500 ft
< 800m
< 200 ft
Symbols :   Thunderstorms  Fog  Heavy snow  Heavy precipitations  Wind > 20 kt






- Airport Elevation : 988 ft


KFVE - Northern Aroostook Regional

CURRENT METAR :
  • 261125Z AUTO 11006KT 3/4SM BR VV002 M06/M06 A3023 RMK AO2 I1001 T10561061

EXPIRED METARs :
  • 261118Z AUTO 10005KT 1SM BR VV002 M06/M06 A3022 RMK AO2 I1001 T10561061
  • 261053Z AUTO 06007KT 1/2SM FZFG VV002 M05/M07 A3021 RMK AO2 SLP245 I1002 T10501067
  • 261022Z AUTO 00000KT 1SM BR VV003 M05/M06 A3022 RMK AO2 I1001 T10501056
  • 260953Z AUTO 08005KT 1/2SM FZFG VV002 M05/M06 A3022 RMK AO2 SLP247 I1002 T10501056
  • 260911Z AUTO 12006KT 1/2SM FZFG VV002 M04/M06 A3021 RMK AO2 T10441056
  • 260903Z AUTO 00000KT 1SM BR VV003 M04/M05 A3020 RMK AO2 T10441050
  • 260849Z AUTO 02004KT 1/2SM FZFG VV003 M04/M06 A3019 RMK AO2 I1001

TAF KFVE
Valid from the 26 at 12:00 until the 27 at 12:00 UTC


261128Z 2612/2712 VRB02KT 1SM BR OVC003
FM261330 10003KT 5SM BR OVC008
FM261500 10003KT 5SM -FZRASNPL OVC012
FM261800 12005KT 5SM -RA OVC008
FM270000 13006KT 1SM -SHRA BR OVC002
FM270300 14003KT 1/2SM FG VV002
KZBW FIR / North America



MET'MAP, your aeronautical weather chart ! - Copyright ORBIFLY December 2007 - Disclaimer

ORBIFLY MET'MAP TEAM :

Programming & Development : Alexandra Zaïnal
Concept & original design : Baudouin d'Aumeries
Assistance for programming : Marc-Olivier Méhu
Technical & hardware support : Manuel Goepfert

Contact : metmap@orbifly.com




SOURCES & CREDITS :

   NOAA